Noshiro, Japan
Current Conditions -  °F | °C
As of 7:00 AM on Sunday 21 Dec 2014 (Local Time) from RJSK Reporting Station
Snow Showers Snow Showers  
Wind Chill: 21°   Ceiling: 5000
Heat Index: 34°   Visibility: 6mi
Dew Point: 19°   Wind: 26mph
Humidity: 56%   Direction: 270°W
Pressure: 29.85"   Gusts: 38mph
Location:  40.2°N, 140.03°E
Report Text: RJSK 202200Z 27023G33KT 9999 -SHSN FEW010 SCT030 BKN050 01/M07 Q1011
Loading
Personal Weather Stations






























Interactive Weather Map New forecast layout! Learn more

10-Day Weather Forecast

Advertisements
Track Severe Weather on mobile